Relevés horaires Matro (Suisse)


Relevés horaires à Matro - Samedi 16 Avr. 2022
Heure UTC1 Température [°C] Vent [km/h] Hum. [%] Pres.4 [hPa] Visi. [Km] Nébu. [octa] Préc.5 [mm] Cond.
2m. Res. Ros. Dir.2 Vit. Moy. Raf.3
23:00 0.3 -6.7 -16.9 NNO 37.0 -- 48.2 26 850(-0.3/3h) -- -- -- --
22:00 0.3 -6.9 -15.1 NNO 38.9 -- 63.0 30 850(0.1/3h) -- -- -- --
21:00 0.6 -6.9 -15.1 NNO 44.4 -- 83.3 30 850(0.6/3h) -- -- -- --
20:00 0.7 -6.7 -14.3 NNO 42.6 -- 66.7 31 850(0.8/3h) -- -- -- --
19:00 0.7 -7.2 -10.8 NNO 50.0 -- 83.3 42 850(0.4/3h) -- -- -- --
18:00 1.2 -6.5 -8.2 NNO 50.0 -- 70.4 49 850(0.0/3h) -- -- -- --
17:00 2.5 -4 -8.6 NNO 38.9 -- 63.0 44 850(-0.6/3h) -- -- -- --
16:00 3.4 -2.9 -10.8 NNO 40.7 -- 61.1 34 850(-0.9/3h) -- -- -- --
15:00 4.0 -2.1 -10.2 NNO 40.7 -- 57.4 35 850(-0.5/3h) -- -- -- --
14:00 4.7 -0.1 -8.5 NNO 27.8 -- 48.2 38 850(-0.1/3h) -- -- -- --
13:00 4.3 -0.8 -7.4 NNO 29.6 -- 57.4 42 850(0.2/3h) -- -- -- --
12:00 4.6 -0.9 -7.2 NNO 35.2 -- 55.6 42 850(-0.2/3h) -- -- -- --
11:00 4.3 -1.3 -8.7 NNO 35.2 -- 50.0 38 850(-0.1/3h) -- -- -- --
10:00 4.5 -0.6 -10.5 NNO 29.6 -- 42.6 33 850(0.0/3h) -- -- -- --
09:00 4.0 -0.5 -9.6 NNO 22.2 -- 46.3 36 850(0.2/3h) -- -- -- --
08:00 3.7 -0.4 -8.0 NNO 18.5 -- 35.2 42 850(0.1/3h) -- -- -- --
07:00 2.8 -2.2 -6.9 NNO 24.1 -- 46.3 49 850(-0.1/3h) -- -- -- --
06:00 2.5 -3.8 -6.9 NNO 37.0 -- 50.0 50 850(-0.3/3h) -- -- -- --
05:00 2.3 -3.3 -7.6 NNO 27.8 -- 42.6 48 850(-0.6/3h) -- -- -- --
04:00 2.7 -2.1 -6.9 NO 22.2 -- 50.0 49 850(-0.9/3h) -- -- -- --
03:00 2.8 -3.6 -4.7 NNO 38.9 -- 50.0 58 850(-1.4/3h) -- -- -- --
02:00 3.0 -2.9 -3.2 NNO 33.3 -- 50.0 64 850(-1.4/3h) -- -- -- --
01:00 3.4 -2.6 -2.9 NO 37.0 -- 50.0 63 850(-1.3/3h) -- -- -- --
00:00 3.7 -2.1 -2.3 NNO 35.2 -- 48.2 65 850(-0.7/3h) -- -- -- --

1 Coordinated Universal Time. Actuellement il est 00:00 locale et 22:00 UTC.

2 Le vent souffle depuis la direction indiquée vers la direction oposée.

3 Les rafales max. sont disponible 40 min après l'heure du relevé.

4 Pour les stations d'altitude (plus de 600m) le géopotentiel du niveau le plus proche de la pression obligatoire est indiqué.

5 Les stations disposant d'un diffuseur peuvent indiquer "trace". Cela signifie que des précipitations ont touchés le sol mais que la quantité est inférieure à 0.1 mm.

Copyright

Les données affichées sur cette page sont la propriété exclusive de Météo Suisse.

Récapitulatif de la journée
Température [°C] Vent [km/h] Ensoleillement4 [h] Precipitations totale5 [mm] Pression [Hpa]
Min1 Max.2 Moy.3 Max. Min Max.
2.2 5.2 0 83.3 12 h 48 min 0 850.0 850.0

1 Température minimale relevée entre 18:00 UTC la veille et 18:00 UTC le jour donné.

2 Température maximale relevée entre 06:00 UTC le jour donné et 06:00 UTC le lendemain.

3 Vent moyen de la journée basé sur les relevés horaires.

4 Ensoleillement en heures relevé entre 06:00 UTC la veille et 06:00 UTC le jour donné.

5 Précipitations totales tombées entre 06:00 UTC la jour donné et 06:00 UTC le lendemain.

Graphiques horaires